Time;durP1;ratioP1;P1;durP2;ratioP2;P2;SDS_P1;SDS_P2;PMS_P1;PMS_P2;Temp;Humidity;BMP_temperature;BMP_pressure;BME280_temperature;BME280_humidity;BME280_pressure;Samples;Min_cycle;Max_cycle;Signal;HPM_P1;HPM_P2
2021/10/06 00:00:22;;;;;;;7.13;2.30;;;;;;;;;;4983308;28;20494;-90
2021/10/06 00:02:48;;;;;;;4.50;2.17;;;;;;;;;;4987211;28;20042;-90
2021/10/06 00:05:14;;;;;;;6.40;2.20;;;;;;;;;;5004047;28;20048;-89
2021/10/06 00:07:42;;;;;;;9.73;2.50;;;;;;;;;;5010005;28;20046;-90
2021/10/06 00:10:11;;;;;;;5.18;2.88;;;;;;;;;;5008964;28;20049;-89
2021/10/06 00:12:37;;;;;;;4.53;2.55;;;;;;;;;;5005943;28;20034;-89
2021/10/06 00:15:07;;;;;;;6.53;3.15;;;;;;;;;;4990128;28;20050;-89
2021/10/06 00:17:34;;;;;;;5.20;2.58;;;;;;;;;;5000430;28;20050;-90
2021/10/06 00:20:00;;;;;;;8.35;3.00;;;;;;;;;;4998663;28;20399;-90
2021/10/06 00:22:26;;;;;;;6.65;2.70;;;;;;;;;;5009765;28;20039;-89
2021/10/06 00:24:52;;;;;;;5.90;2.60;;;;;;;;;;5006071;28;20050;-89
2021/10/06 00:27:18;;;;;;;5.55;2.85;;;;;;;;;;5006381;28;20120;-90
2021/10/06 00:29:44;;;;;;;5.35;2.90;;;;;;;;;;5015577;28;20050;-89
2021/10/06 00:32:10;;;;;;;6.68;3.40;;;;;;;;;;5015297;28;20058;-89
2021/10/06 00:34:36;;;;;;;5.20;3.17;;;;;;;;;;5013629;28;20615;-89
2021/10/06 00:37:03;;;;;;;7.15;3.03;;;;;;;;;;5015072;28;20053;-89
2021/10/06 00:39:29;;;;;;;7.10;2.90;;;;;;;;;;5010051;28;20085;-89
2021/10/06 00:41:55;;;;;;;7.65;2.88;;;;;;;;;;4998317;28;20042;-91
2021/10/06 00:44:22;;;;;;;7.53;2.97;;;;;;;;;;5015406;28;20050;-90
2021/10/06 00:46:48;;;;;;;6.65;2.72;;;;;;;;;;4999359;28;20056;-89
2021/10/06 00:49:14;;;;;;;7.43;2.75;;;;;;;;;;5015699;28;20273;-88
2021/10/06 00:51:41;;;;;;;4.20;2.30;;;;;;;;;;4998989;28;20133;-88
2021/10/06 00:54:07;;;;;;;5.70;2.30;;;;;;;;;;5014074;28;20363;-90
2021/10/06 00:56:34;;;;;;;6.07;2.28;;;;;;;;;;4998610;28;20145;-89
2021/10/06 00:59:00;;;;;;;5.20;1.92;;;;;;;;;;4998272;28;20061;-89
2021/10/06 01:01:26;;;;;;;4.78;2.20;;;;;;;;;;5014525;28;20136;-90
2021/10/06 01:03:52;;;;;;;5.18;2.00;;;;;;;;;;5015203;28;20132;-88
2021/10/06 01:06:19;;;;;;;4.97;2.00;;;;;;;;;;5015049;28;20046;-89
2021/10/06 01:08:45;;;;;;;8.30;2.70;;;;;;;;;;5006435;28;20100;-89
2021/10/06 01:11:12;;;;;;;6.93;2.33;;;;;;;;;;4994531;28;20069;-88
2021/10/06 01:13:38;;;;;;;5.68;2.00;;;;;;;;;;4980876;28;20054;-90
2021/10/06 01:16:05;;;;;;;7.93;2.97;;;;;;;;;;4977865;28;20065;-89
2021/10/06 01:18:31;;;;;;;5.95;2.13;;;;;;;;;;4978907;28;20042;-88
2021/10/06 01:20:58;;;;;;;6.95;2.13;;;;;;;;;;4994765;28;20049;-91
2021/10/06 01:23:24;;;;;;;5.85;1.90;;;;;;;;;;4995630;28;20042;-90
2021/10/06 01:25:50;;;;;;;5.40;2.00;;;;;;;;;;4978590;28;20053;-90
2021/10/06 01:28:16;;;;;;;3.90;2.05;;;;;;;;;;4977895;28;20646;-89
2021/10/06 01:30:43;;;;;;;5.20;2.10;;;;;;;;;;4978852;28;20105;-89
2021/10/06 01:33:09;;;;;;;7.18;2.58;;;;;;;;;;4994653;28;20129;-89
2021/10/06 01:35:35;;;;;;;7.00;2.65;;;;;;;;;;4978746;28;20496;-89
2021/10/06 01:38:01;;;;;;;6.57;2.20;;;;;;;;;;4980745;28;20050;-89
2021/10/06 01:40:28;;;;;;;4.82;2.13;;;;;;;;;;4994849;28;20479;-89
2021/10/06 01:42:54;;;;;;;4.97;2.00;;;;;;;;;;4988273;28;20057;-89
2021/10/06 01:45:22;;;;;;;6.72;2.38;;;;;;;;;;4997268;28;20475;-88
2021/10/06 01:47:48;;;;;;;5.53;2.40;;;;;;;;;;4998186;28;20060;-88
2021/10/06 01:50:25;;;;;;;6.18;2.70;;;;;;;;;;4997833;28;20136;-88
2021/10/06 01:52:52;;;;;;;4.82;2.45;;;;;;;;;;4997997;28;20049;-88
2021/10/06 01:55:23;;;;;;;7.30;3.30;;;;;;;;;;4997432;28;20104;-88
2021/10/06 01:57:49;;;;;;;8.23;3.35;;;;;;;;;;5014124;28;20046;-90
2021/10/06 02:00:16;;;;;;;7.55;3.85;;;;;;;;;;4997234;28;20137;-88
2021/10/06 02:02:42;;;;;;;6.88;3.47;;;;;;;;;;4997777;28;20056;-89
2021/10/06 02:05:08;;;;;;;6.97;4.07;;;;;;;;;;5007446;28;20038;-89
2021/10/06 02:07:35;;;;;;;6.57;4.15;;;;;;;;;;5013838;28;20096;-89
2021/10/06 02:10:01;;;;;;;8.52;4.05;;;;;;;;;;4996916;28;20050;-90
2021/10/06 02:12:27;;;;;;;7.93;4.22;;;;;;;;;;4998046;28;20065;-89
2021/10/06 02:14:56;;;;;;;7.22;4.30;;;;;;;;;;4997430;28;20049;-89
2021/10/06 02:17:22;;;;;;;8.75;4.55;;;;;;;;;;4996639;28;20057;-88
2021/10/06 02:19:48;;;;;;;8.10;4.60;;;;;;;;;;4997361;28;20096;-89
2021/10/06 02:22:14;;;;;;;7.72;4.68;;;;;;;;;;4996540;28;20053;-89
2021/10/06 02:24:41;;;;;;;8.13;4.20;;;;;;;;;;4996755;28;20129;-88
2021/10/06 02:27:07;;;;;;;7.88;4.45;;;;;;;;;;4996071;28;20053;-88
2021/10/06 02:29:33;;;;;;;6.78;4.43;;;;;;;;;;4996481;28;20096;-88
2021/10/06 02:31:59;;;;;;;5.75;4.20;;;;;;;;;;4996999;28;20536;-89
2021/10/06 02:34:26;;;;;;;9.63;4.47;;;;;;;;;;4996779;28;20597;-89
2021/10/06 02:36:52;;;;;;;7.35;4.20;;;;;;;;;;4996947;28;20053;-89
2021/10/06 02:39:19;;;;;;;10.57;5.00;;;;;;;;;;5012318;28;20049;-90
2021/10/06 02:41:45;;;;;;;8.48;4.25;;;;;;;;;;4997209;28;20050;-90
2021/10/06 02:44:11;;;;;;;7.43;4.60;;;;;;;;;;4996054;28;20138;-89
2021/10/06 02:46:37;;;;;;;8.52;4.35;;;;;;;;;;5012908;28;20049;-90
2021/10/06 02:49:03;;;;;;;8.52;4.05;;;;;;;;;;4996013;28;20045;-89
2021/10/06 02:51:30;;;;;;;7.35;4.47;;;;;;;;;;4996517;28;20065;-89
2021/10/06 02:53:56;;;;;;;7.20;4.22;;;;;;;;;;4996554;28;20050;-88
2021/10/06 02:56:22;;;;;;;10.05;4.40;;;;;;;;;;5012806;28;20053;-87
2021/10/06 02:58:49;;;;;;;8.60;4.28;;;;;;;;;;4996602;28;20371;-88
2021/10/06 03:01:15;;;;;;;9.70;4.35;;;;;;;;;;5003409;28;20046;-88
2021/10/06 03:03:41;;;;;;;10.48;5.32;;;;;;;;;;4977433;28;20056;-88
2021/10/06 03:06:08;;;;;;;9.32;4.55;;;;;;;;;;4976022;28;20132;-88
2021/10/06 03:08:34;;;;;;;8.85;4.40;;;;;;;;;;4976547;28;20403;-88
2021/10/06 03:11:00;;;;;;;9.30;4.60;;;;;;;;;;4992160;28;20039;-90
2021/10/06 03:13:27;;;;;;;8.90;4.70;;;;;;;;;;4982861;28;20100;-88
2021/10/06 03:15:54;;;;;;;8.27;4.40;;;;;;;;;;4996096;28;20046;-89
2021/10/06 03:18:20;;;;;;;6.88;4.50;;;;;;;;;;4995605;28;20192;-88
2021/10/06 03:20:46;;;;;;;8.82;5.13;;;;;;;;;;4996206;28;20088;-89
2021/10/06 03:23:13;;;;;;;8.07;4.88;;;;;;;;;;4995507;28;20042;-88
2021/10/06 03:25:39;;;;;;;9.75;4.63;;;;;;;;;;4996246;28;20042;-89
2021/10/06 03:28:05;;;;;;;7.53;4.38;;;;;;;;;;4994852;28;20146;-89
2021/10/06 03:30:31;;;;;;;7.65;4.47;;;;;;;;;;4995076;28;20046;-88
2021/10/06 03:32:57;;;;;;;6.55;4.30;;;;;;;;;;4996274;28;20549;-89
2021/10/06 03:35:23;;;;;;;9.77;4.63;;;;;;;;;;5011877;28;20124;-88
2021/10/06 03:37:50;;;;;;;9.73;4.80;;;;;;;;;;4995478;28;20057;-89
2021/10/06 03:40:16;;;;;;;8.38;4.63;;;;;;;;;;4995102;28;20049;-88
2021/10/06 03:42:42;;;;;;;7.18;4.88;;;;;;;;;;4995551;28;20053;-88
2021/10/06 03:45:10;;;;;;;6.97;4.57;;;;;;;;;;4995123;28;20508;-93
2021/10/06 03:47:36;;;;;;;8.63;4.78;;;;;;;;;;4995405;28;20453;-91
2021/10/06 03:50:03;;;;;;;8.63;4.43;;;;;;;;;;5011668;28;20041;-92
2021/10/06 03:52:29;;;;;;;7.25;4.50;;;;;;;;;;4995731;28;20125;-91
2021/10/06 03:54:55;;;;;;;7.35;4.72;;;;;;;;;;4995524;28;20053;-88
2021/10/06 03:57:21;;;;;;;7.95;4.60;;;;;;;;;;4995085;28;20637;-88
2021/10/06 03:59:47;;;;;;;8.38;5.18;;;;;;;;;;5011830;28;20099;-89
2021/10/06 04:02:13;;;;;;;8.82;5.05;;;;;;;;;;5011356;28;20046;-88
2021/10/06 04:04:39;;;;;;;7.20;4.88;;;;;;;;;;4995716;28;20045;-88
2021/10/06 04:07:05;;;;;;;9.55;4.60;;;;;;;;;;5011381;28;20061;-89
2021/10/06 04:09:32;;;;;;;7.53;4.47;;;;;;;;;;5011937;28;20050;-87
2021/10/06 04:11:58;;;;;;;7.90;4.45;;;;;;;;;;4995537;28;20041;-88
2021/10/06 04:14:24;;;;;;;7.45;4.43;;;;;;;;;;4994975;28;20077;-89
2021/10/06 04:16:50;;;;;;;7.00;4.05;;;;;;;;;;4995741;28;20508;-89
2021/10/06 04:19:16;;;;;;;5.25;3.50;;;;;;;;;;4994914;28;20433;-89
2021/10/06 04:21:42;;;;;;;8.70;4.03;;;;;;;;;;4995412;28;20081;-87
2021/10/06 04:24:08;;;;;;;7.80;3.60;;;;;;;;;;4994263;28;20042;-89
2021/10/06 04:26:34;;;;;;;6.63;3.88;;;;;;;;;;5012121;28;20140;-89
2021/10/06 04:29:00;;;;;;;7.55;3.80;;;;;;;;;;5010995;28;20050;-90
2021/10/06 04:31:27;;;;;;;6.22;3.70;;;;;;;;;;4994639;28;20160;-89
2021/10/06 04:33:53;;;;;;;6.70;3.60;;;;;;;;;;5011303;28;20038;-91
2021/10/06 04:36:19;;;;;;;4.47;3.13;;;;;;;;;;4994654;28;20619;-89
2021/10/06 04:38:45;;;;;;;5.90;3.03;;;;;;;;;;4999846;28;20402;-88
2021/10/06 04:41:13;;;;;;;6.30;3.40;;;;;;;;;;4994372;28;20137;-89
2021/10/06 04:43:39;;;;;;;5.95;3.60;;;;;;;;;;4988233;28;20061;-89
2021/10/06 04:46:05;;;;;;;4.85;3.20;;;;;;;;;;5005215;28;20050;-90
2021/10/06 04:48:31;;;;;;;4.25;2.88;;;;;;;;;;4995043;28;20089;-89
2021/10/06 04:50:57;;;;;;;6.63;3.10;;;;;;;;;;4996230;28;20129;-88
2021/10/06 04:53:23;;;;;;;5.18;2.47;;;;;;;;;;4998675;28;20100;-90
2021/10/06 04:55:49;;;;;;;5.03;2.67;;;;;;;;;;4998430;28;20045;-89
2021/10/06 04:58:15;;;;;;;4.43;2.22;;;;;;;;;;4999232;28;20046;-88
2021/10/06 05:00:41;;;;;;;4.20;2.10;;;;;;;;;;5010975;28;20041;-87
2021/10/06 05:03:07;;;;;;;5.53;2.45;;;;;;;;;;4996978;28;20060;-88
2021/10/06 05:05:34;;;;;;;6.47;2.20;;;;;;;;;;5014826;28;20075;-88
2021/10/06 05:08:00;;;;;;;6.43;2.30;;;;;;;;;;5012471;28;20041;-87
2021/10/06 05:10:26;;;;;;;3.30;1.77;;;;;;;;;;5013446;28;20049;-87
2021/10/06 05:12:52;;;;;;;5.90;2.28;;;;;;;;;;4997307;28;20045;-87
2021/10/06 05:15:18;;;;;;;2.92;1.70;;;;;;;;;;5005823;28;20038;-88
2021/10/06 05:17:44;;;;;;;5.30;1.75;;;;;;;;;;4977624;28;20050;-87
2021/10/06 05:20:10;;;;;;;4.40;1.65;;;;;;;;;;4993473;28;20110;-87
2021/10/06 05:22:36;;;;;;;4.28;1.67;;;;;;;;;;4993969;28;20069;-87
2021/10/06 05:25:03;;;;;;;3.88;1.70;;;;;;;;;;4978663;28;20100;-87
2021/10/06 05:27:30;;;;;;;3.78;1.40;;;;;;;;;;5012749;28;20045;-88
2021/10/06 05:29:57;;;;;;;3.78;2.00;;;;;;;;;;4997573;28;20115;-88
2021/10/06 05:32:23;;;;;;;3.83;1.70;;;;;;;;;;5012762;28;20080;-88
2021/10/06 05:34:49;;;;;;;4.50;1.85;;;;;;;;;;5012421;28;20129;-88
2021/10/06 05:37:16;;;;;;;5.72;2.08;;;;;;;;;;4992193;28;20049;-90
2021/10/06 05:39:42;;;;;;;5.70;1.80;;;;;;;;;;4992079;28;20478;-89
2021/10/06 05:42:08;;;;;;;5.07;1.83;;;;;;;;;;4995432;28;20041;-89
2021/10/06 05:44:34;;;;;;;4.70;2.22;;;;;;;;;;4996030;28;20085;-89
2021/10/06 05:47:00;;;;;;;4.80;2.20;;;;;;;;;;4992914;28;20049;-89
2021/10/06 05:49:27;;;;;;;4.95;1.95;;;;;;;;;;4997192;28;20049;-89
2021/10/06 05:51:53;;;;;;;5.03;2.30;;;;;;;;;;4997334;28;20405;-88
2021/10/06 05:54:19;;;;;;;4.28;2.17;;;;;;;;;;4996940;28;20081;-90
2021/10/06 05:56:45;;;;;;;5.03;2.22;;;;;;;;;;4996820;28;20136;-89
2021/10/06 05:59:11;;;;;;;5.03;2.58;;;;;;;;;;5013054;28;20069;-88
2021/10/06 06:01:38;;;;;;;5.43;2.15;;;;;;;;;;5012468;28;20533;-88
2021/10/06 06:04:04;;;;;;;5.63;2.47;;;;;;;;;;5016627;28;20041;-90
2021/10/06 06:06:30;;;;;;;4.82;2.65;;;;;;;;;;5016787;28;20045;-89
2021/10/06 06:08:56;;;;;;;7.32;2.50;;;;;;;;;;5016933;28;20053;-89
2021/10/06 06:11:23;;;;;;;5.07;2.80;;;;;;;;;;5015846;28;20052;-89
2021/10/06 06:13:49;;;;;;;5.18;2.38;;;;;;;;;;5011234;28;20470;-89
2021/10/06 06:16:16;;;;;;;5.25;2.58;;;;;;;;;;4996459;28;20048;-89
2021/10/06 06:18:42;;;;;;;4.10;2.42;;;;;;;;;;4996985;28;20042;-88
2021/10/06 06:21:08;;;;;;;5.47;2.85;;;;;;;;;;5012372;28;20076;-89
2021/10/06 06:23:34;;;;;;;4.15;2.60;;;;;;;;;;5032189;28;20048;-89
2021/10/06 06:26:01;;;;;;;4.40;2.50;;;;;;;;;;5032678;28;20108;-89
2021/10/06 06:28:27;;;;;;;4.30;2.65;;;;;;;;;;5016341;28;20061;-90
2021/10/06 06:30:54;;;;;;;7.13;3.08;;;;;;;;;;5032647;28;20057;-89
2021/10/06 06:33:20;;;;;;;4.40;2.85;;;;;;;;;;5015654;28;20045;-90
2021/10/06 06:35:46;;;;;;;4.55;3.15;;;;;;;;;;5032804;28;20041;-89
2021/10/06 06:38:12;;;;;;;6.18;3.00;;;;;;;;;;5008922;28;20072;-89
2021/10/06 06:40:41;;;;;;;4.15;3.00;;;;;;;;;;5032602;28;20504;-89
2021/10/06 06:43:11;;;;;;;4.78;3.40;;;;;;;;;;5024210;28;20041;-91
2021/10/06 06:45:37;;;;;;;5.28;3.17;;;;;;;;;;4996846;28;20053;-90
2021/10/06 06:48:04;;;;;;;6.22;3.30;;;;;;;;;;4995818;28;20069;-90
2021/10/06 06:50:30;;;;;;;4.75;3.42;;;;;;;;;;4996126;28;20049;-89
2021/10/06 06:52:56;;;;;;;5.07;3.50;;;;;;;;;;4996319;28;20049;-90
2021/10/06 06:55:23;;;;;;;6.47;3.47;;;;;;;;;;5012092;28;20494;-90
2021/10/06 06:57:49;;;;;;;4.85;3.40;;;;;;;;;;4996486;28;20042;-89
2021/10/06 07:00:15;;;;;;;5.78;3.70;;;;;;;;;;4995868;28;20148;-90
2021/10/06 07:02:41;;;;;;;4.30;3.53;;;;;;;;;;5012436;28;20049;-89
2021/10/06 07:05:07;;;;;;;5.45;3.38;;;;;;;;;;5012082;28;20127;-91
2021/10/06 07:07:33;;;;;;;5.40;3.75;;;;;;;;;;4995986;28;20483;-90
2021/10/06 07:09:59;;;;;;;7.72;3.90;;;;;;;;;;4996402;28;20060;-89
2021/10/06 07:12:26;;;;;;;5.47;3.50;;;;;;;;;;4996021;28;20046;-90
2021/10/06 07:14:52;;;;;;;6.45;3.65;;;;;;;;;;4996082;28;20050;-89
2021/10/06 07:17:19;;;;;;;5.05;3.53;;;;;;;;;;4995342;28;20057;-89
2021/10/06 07:19:46;;;;;;;5.50;3.70;;;;;;;;;;4995607;28;20058;-89
2021/10/06 07:22:15;;;;;;;6.68;3.42;;;;;;;;;;4994960;28;20038;-89
2021/10/06 07:24:41;;;;;;;3.85;3.00;;;;;;;;;;4995416;28;20167;-90
2021/10/06 07:27:08;;;;;;;5.53;3.30;;;;;;;;;;4996710;28;20045;-91
2021/10/06 07:29:35;;;;;;;4.88;3.10;;;;;;;;;;4995570;28;20061;-92
2021/10/06 07:32:01;;;;;;;4.60;3.00;;;;;;;;;;4996100;28;20050;-90
2021/10/06 07:34:27;;;;;;;4.85;2.97;;;;;;;;;;5010214;28;20806;-90
2021/10/06 07:36:53;;;;;;;3.70;2.70;;;;;;;;;;4995765;28;20461;-90
2021/10/06 07:39:20;;;;;;;4.32;2.80;;;;;;;;;;4994518;28;20134;-90
2021/10/06 07:41:46;;;;;;;5.05;2.58;;;;;;;;;;4994974;28;20577;-89
2021/10/06 07:44:12;;;;;;;3.65;2.75;;;;;;;;;;4995168;28;20092;-90
2021/10/06 07:46:38;;;;;;;4.03;2.67;;;;;;;;;;5011806;28;20041;-91
2021/10/06 07:49:05;;;;;;;4.03;2.47;;;;;;;;;;4996268;28;20053;-90
2021/10/06 07:51:31;;;;;;;4.10;2.25;;;;;;;;;;5011877;28;20049;-90
2021/10/06 07:53:57;;;;;;;5.38;2.78;;;;;;;;;;4995944;28;20413;-90
2021/10/06 07:56:23;;;;;;;3.60;2.47;;;;;;;;;;4995073;28;20049;-91
2021/10/06 07:58:50;;;;;;;3.15;2.38;;;;;;;;;;5011442;28;20042;-93
2021/10/06 08:01:16;;;;;;;4.05;2.42;;;;;;;;;;5010619;28;20041;-95
2021/10/06 08:03:42;;;;;;;4.97;2.30;;;;;;;;;;4976356;28;20487;-94
2021/10/06 08:06:08;;;;;;;4.35;2.60;;;;;;;;;;4975990;28;20502;-92
2021/10/06 08:08:34;;;;;;;4.90;2.58;;;;;;;;;;4975941;28;20050;-93
2021/10/06 08:11:01;;;;;;;2.80;2.50;;;;;;;;;;4992424;28;20438;-93
2021/10/06 08:13:30;;;;;;;3.53;2.38;;;;;;;;;;4992499;28;20108;-93
2021/10/06 08:15:57;;;;;;;3.03;2.30;;;;;;;;;;4976731;28;20092;-93
2021/10/06 08:18:23;;;;;;;4.20;2.60;;;;;;;;;;4981716;28;20042;-95
2021/10/06 08:20:50;;;;;;;4.78;2.50;;;;;;;;;;5010798;28;20038;-96
2021/10/06 08:23:20;;;;;;;3.08;2.33;;;;;;;;;;5012026;28;20046;-96
2021/10/06 08:25:47;;;;;;;4.43;2.70;;;;;;;;;;5012582;28;20049;-92
2021/10/06 08:28:14;;;;;;;4.18;2.78;;;;;;;;;;5014416;28;20057;-93
2021/10/06 08:30:40;;;;;;;3.65;2.40;;;;;;;;;;5015953;28;20120;-96
2021/10/06 08:33:06;;;;;;;2.95;2.55;;;;;;;;;;4999009;28;20049;-92
2021/10/06 08:35:37;;;;;;;3.35;2.60;;;;;;;;;;4998551;28;20115;-95
2021/10/06 08:38:03;;;;;;;3.42;2.60;;;;;;;;;;4999258;28;20490;-92
2021/10/06 08:40:30;;;;;;;3.65;2.40;;;;;;;;;;5015595;28;20183;-93
2021/10/06 08:42:56;;;;;;;3.97;2.60;;;;;;;;;;4998334;28;20100;-95
2021/10/06 08:45:22;;;;;;;2.95;2.60;;;;;;;;;;4998694;28;20474;-94
2021/10/06 08:47:51;;;;;;;3.00;2.63;;;;;;;;;;5017258;28;20041;-95
2021/10/06 08:50:18;;;;;;;3.92;2.47;;;;;;;;;;5003752;28;20042;-95
2021/10/06 08:52:48;;;;;;;2.80;2.60;;;;;;;;;;5007719;28;20336;-95
2021/10/06 08:55:14;;;;;;;2.78;2.40;;;;;;;;;;5002500;28;20052;-95
2021/10/06 08:57:41;;;;;;;3.30;2.65;;;;;;;;;;5002544;28;20041;-95
2021/10/06 09:00:07;;;;;;;4.53;2.50;;;;;;;;;;5017306;28;20046;-93
2021/10/06 09:02:40;;;;;;;3.05;2.60;;;;;;;;;;5020875;28;20042;-96
2021/10/06 09:05:07;;;;;;;2.83;2.50;;;;;;;;;;5000627;28;20045;-92
2021/10/06 09:07:39;;;;;;;2.80;2.38;;;;;;;;;;5000765;28;20128;-94
2021/10/06 09:10:15;;;;;;;3.05;2.40;;;;;;;;;;5000792;28;20591;-94
2021/10/06 09:12:53;;;;;;;2.45;2.13;;;;;;;;;;5018198;28;20050;-94
2021/10/06 09:15:24;;;;;;;3.50;2.25;;;;;;;;;;5018184;28;20053;-96
2021/10/06 09:17:58;;;;;;;3.88;2.13;;;;;;;;;;5001198;28;20490;-96
2021/10/06 09:20:36;;;;;;;2.97;1.80;;;;;;;;;;5000706;28;20077;-95
2021/10/06 09:23:04;;;;;;;2.03;1.80;;;;;;;;;;4999941;28;20359;-96
2021/10/06 09:25:36;;;;;;;2.67;1.80;;;;;;;;;;5015425;28;20069;-96
2021/10/06 09:28:06;;;;;;;2.15;1.50;;;;;;;;;;4998847;28;20609;-95
2021/10/06 09:30:33;;;;;;;1.90;1.60;;;;;;;;;;4998219;28;20738;-96
2021/10/06 09:33:00;;;;;;;1.70;1.40;;;;;;;;;;4999390;28;20470;-96
2021/10/06 09:35:26;;;;;;;1.70;1.20;;;;;;;;;;4999259;28;20061;-96
2021/10/06 09:37:54;;;;;;;1.90;1.42;;;;;;;;;;4997846;28;20410;-94
2021/10/06 09:40:22;;;;;;;2.15;1.30;;;;;;;;;;4999149;28;20042;-95
2021/10/06 09:42:49;;;;;;;3.10;1.40;;;;;;;;;;5016626;28;20046;-95
2021/10/06 09:45:23;;;;;;;4.22;1.80;;;;;;;;;;4998625;28;20479;-95
2021/10/06 09:48:05;;;;;;;2.30;1.70;;;;;;;;;;4999284;28;20500;-96
2021/10/06 09:50:32;;;;;;;2.35;1.50;;;;;;;;;;4998136;28;20046;-95
2021/10/06 09:53:08;;;;;;;2.45;1.40;;;;;;;;;;5015869;28;20053;-95
2021/10/06 09:55:35;;;;;;;3.40;1.58;;;;;;;;;;4998560;28;20054;-96
2021/10/06 09:58:03;;;;;;;2.10;1.40;;;;;;;;;;4999021;28;20544;-95
2021/10/06 10:00:30;;;;;;;1.40;1.30;;;;;;;;;;4998045;28;20490;-96
2021/10/06 10:02:56;;;;;;;2.05;1.50;;;;;;;;;;4999307;28;20054;-96
2021/10/06 10:05:22;;;;;;;2.22;1.50;;;;;;;;;;4997851;28;20054;-95
2021/10/06 10:07:50;;;;;;;4.05;1.77;;;;;;;;;;5000207;28;20046;-95
2021/10/06 10:10:16;;;;;;;2.40;1.38;;;;;;;;;;5014253;28;20088;-94
2021/10/06 10:12:43;;;;;;;2.20;1.40;;;;;;;;;;5015359;28;20057;-96
2021/10/06 10:15:09;;;;;;;2.55;1.40;;;;;;;;;;5014776;28;20052;-96
2021/10/06 10:17:36;;;;;;;3.65;1.50;;;;;;;;;;5003249;28;20502;-94
2021/10/06 10:20:03;;;;;;;2.85;1.63;;;;;;;;;;5012725;28;20096;-94
2021/10/06 10:22:31;;;;;;;3.70;1.40;;;;;;;;;;5024372;28;20076;-92
2021/10/06 10:24:57;;;;;;;2.53;1.38;;;;;;;;;;5014343;28;20051;-94
2021/10/06 10:27:27;;;;;;;4.57;1.70;;;;;;;;;;5014081;28;20537;-94
2021/10/06 10:30:04;;;;;;;3.05;1.63;;;;;;;;;;4978156;28;20406;-95
2021/10/06 10:32:44;;;;;;;2.67;1.42;;;;;;;;;;4961891;28;20045;-93
2021/10/06 10:35:11;;;;;;;2.15;1.30;;;;;;;;;;4964741;28;20133;-96
2021/10/06 10:37:49;;;;;;;2.25;1.30;;;;;;;;;;4961384;28;20101;-95
2021/10/06 10:40:34;;;;;;;3.55;1.25;;;;;;;;;;4960996;28;20050;-93
2021/10/06 10:43:19;;;;;;;2.58;1.20;;;;;;;;;;4978129;28;20042;-94
2021/10/06 10:46:00;;;;;;;2.20;1.00;;;;;;;;;;4977790;28;20101;-95
2021/10/06 10:48:31;;;;;;;3.47;1.10;;;;;;;;;;4960382;28;20322;-95
2021/10/06 10:50:57;;;;;;;2.40;0.85;;;;;;;;;;4961566;28;20050;-94
2021/10/06 10:53:42;;;;;;;2.03;1.05;;;;;;;;;;4960839;28;20077;-92
2021/10/06 10:56:10;;;;;;;3.55;0.90;;;;;;;;;;4961631;28;20054;-92
2021/10/06 10:58:41;;;;;;;2.53;0.73;;;;;;;;;;4978133;28;20054;-93
2021/10/06 11:01:08;;;;;;;2.65;0.80;;;;;;;;;;4958653;28;20042;-92
2021/10/06 11:03:54;;;;;;;3.13;1.00;;;;;;;;;;4941911;28;20089;-91
2021/10/06 11:06:36;;;;;;;2.05;0.70;;;;;;;;;;4941732;28;20569;-91
2021/10/06 11:09:02;;;;;;;1.75;1.00;;;;;;;;;;4962305;28;20044;-93
2021/10/06 11:11:29;;;;;;;2.50;1.02;;;;;;;;;;4954398;28;20052;-91
2021/10/06 11:13:55;;;;;;;1.15;0.80;;;;;;;;;;4961850;28;20054;-92
2021/10/06 11:16:41;;;;;;;1.90;0.90;;;;;;;;;;4961217;28;20058;-94
2021/10/06 11:19:27;;;;;;;2.42;0.95;;;;;;;;;;4979957;28;20104;-94
2021/10/06 11:21:53;;;;;;;1.20;0.70;;;;;;;;;;4977126;28;20053;-93
2021/10/06 11:24:19;;;;;;;3.95;1.17;;;;;;;;;;4976328;28;20138;-91
2021/10/06 11:26:45;;;;;;;1.92;0.80;;;;;;;;;;4959999;28;20057;-92
2021/10/06 11:29:11;;;;;;;1.05;0.68;;;;;;;;;;4980987;28;20062;-89
2021/10/06 11:31:39;;;;;;;1.75;1.00;;;;;;;;;;4986490;28;20089;-90
2021/10/06 11:34:15;;;;;;;3.50;1.02;;;;;;;;;;5010574;28;20042;-90
2021/10/06 11:36:47;;;;;;;1.40;0.80;;;;;;;;;;4996802;28;20050;-89
2021/10/06 11:39:13;;;;;;;2.88;1.00;;;;;;;;;;4994907;28;20104;-90
2021/10/06 11:41:43;;;;;;;2.13;0.80;;;;;;;;;;5011154;28;20119;-89
2021/10/06 11:44:09;;;;;;;2.75;0.80;;;;;;;;;;4995852;28;20057;-88
2021/10/06 11:46:36;;;;;;;1.88;0.90;;;;;;;;;;4994802;28;20046;-88
2021/10/06 11:49:04;;;;;;;1.83;0.70;;;;;;;;;;4995735;28;20132;-88
2021/10/06 11:51:39;;;;;;;2.17;0.82;;;;;;;;;;4995342;28;20048;-88
2021/10/06 11:54:05;;;;;;;2.42;1.10;;;;;;;;;;4995890;28;20053;-89
2021/10/06 11:56:33;;;;;;;2.55;1.50;;;;;;;;;;4994586;28;20483;-89
2021/10/06 11:59:12;;;;;;;2.17;1.30;;;;;;;;;;4996156;28;20058;-90
2021/10/06 12:01:39;;;;;;;2.15;1.20;;;;;;;;;;4995013;28;20038;-88
2021/10/06 12:04:09;;;;;;;3.10;1.35;;;;;;;;;;4995360;28;20061;-88
2021/10/06 12:06:35;;;;;;;2.15;1.17;;;;;;;;;;5011395;28;20506;-89
2021/10/06 12:09:07;;;;;;;1.77;1.27;;;;;;;;;;5011859;28;20081;-89
2021/10/06 12:11:33;;;;;;;1.30;1.20;;;;;;;;;;4995354;28;20034;-90
2021/10/06 12:13:59;;;;;;;2.08;1.45;;;;;;;;;;5011760;28;20068;-89
2021/10/06 12:16:30;;;;;;;2.08;1.30;;;;;;;;;;5012039;28;20399;-90
2021/10/06 12:18:57;;;;;;;2.35;1.75;;;;;;;;;;4995031;28;20054;-90
2021/10/06 12:21:23;;;;;;;2.95;1.52;;;;;;;;;;4995053;28;20042;-90
2021/10/06 12:23:49;;;;;;;3.88;1.88;;;;;;;;;;5012143;28;20046;-91
2021/10/06 12:26:16;;;;;;;2.00;1.50;;;;;;;;;;5011600;28;20053;-92
2021/10/06 12:28:52;;;;;;;3.88;1.80;;;;;;;;;;5011762;28;20513;-90
2021/10/06 12:31:26;;;;;;;2.10;1.50;;;;;;;;;;4995059;28;20050;-90
2021/10/06 12:34:12;;;;;;;1.95;1.40;;;;;;;;;;4995134;28;20053;-89
2021/10/06 12:36:45;;;;;;;4.07;1.50;;;;;;;;;;4988923;28;20084;-89
2021/10/06 12:39:22;;;;;;;3.95;1.60;;;;;;;;;;4990913;28;20474;-90
2021/10/06 12:41:52;;;;;;;1.55;1.17;;;;;;;;;;4997881;28;20048;-90
2021/10/06 12:44:18;;;;;;;3.08;1.42;;;;;;;;;;4994166;28;20053;-90
2021/10/06 12:46:44;;;;;;;3.05;1.40;;;;;;;;;;4994588;28;20042;-89
2021/10/06 12:49:11;;;;;;;1.60;0.90;;;;;;;;;;5004028;28;20101;-91
2021/10/06 12:51:37;;;;;;;2.75;1.10;;;;;;;;;;4990819;28;20081;-90
2021/10/06 12:54:05;;;;;;;2.65;1.00;;;;;;;;;;4975332;28;20093;-88
2021/10/06 12:56:35;;;;;;;1.55;1.20;;;;;;;;;;4983792;28;20119;-88
2021/10/06 12:59:04;;;;;;;1.75;1.08;;;;;;;;;;4994300;28;20439;-90
2021/10/06 13:01:34;;;;;;;1.88;1.10;;;;;;;;;;4994320;28;20044;-89
2021/10/06 13:04:06;;;;;;;2.15;0.80;;;;;;;;;;4994244;28;20121;-90
2021/10/06 13:06:32;;;;;;;1.75;0.90;;;;;;;;;;4993684;28;20053;-90
2021/10/06 13:09:00;;;;;;;1.58;0.80;;;;;;;;;;5010356;28;20053;-89
2021/10/06 13:11:27;;;;;;;0.95;0.77;;;;;;;;;;4988698;28;20073;-90
2021/10/06 13:13:54;;;;;;;1.35;0.88;;;;;;;;;;4993907;28;20061;-89
2021/10/06 13:16:20;;;;;;;2.42;0.90;;;;;;;;;;4977407;28;20491;-91
2021/10/06 13:18:47;;;;;;;1.70;0.80;;;;;;;;;;5003439;28;20494;-91
2021/10/06 13:21:13;;;;;;;3.08;1.00;;;;;;;;;;5004662;28;20042;-92
2021/10/06 13:23:40;;;;;;;1.13;0.82;;;;;;;;;;5002083;28;20050;-90
2021/10/06 13:26:08;;;;;;;2.25;0.73;;;;;;;;;;4997887;28;20046;-91
2021/10/06 13:28:35;;;;;;;1.75;1.05;;;;;;;;;;4982943;28;20532;-90
2021/10/06 13:31:01;;;;;;;1.58;0.70;;;;;;;;;;4978605;28;20410;-90
2021/10/06 13:33:30;;;;;;;3.67;1.13;;;;;;;;;;4962241;28;20391;-92
2021/10/06 13:35:57;;;;;;;0.95;0.60;;;;;;;;;;4978263;28;20042;-91
2021/10/06 13:38:23;;;;;;;1.15;0.70;;;;;;;;;;4961451;28;20096;-91
2021/10/06 13:40:49;;;;;;;1.05;0.63;;;;;;;;;;4962561;28;20051;-92
2021/10/06 13:43:16;;;;;;;1.40;0.60;;;;;;;;;;4962607;28;20054;-92
2021/10/06 13:45:43;;;;;;;2.10;1.00;;;;;;;;;;4962841;28;20057;-90
2021/10/06 13:48:09;;;;;;;0.90;0.70;;;;;;;;;;4961930;28;20054;-90
2021/10/06 13:50:36;;;;;;;1.35;0.65;;;;;;;;;;4978190;28;20058;-91
2021/10/06 13:53:03;;;;;;;1.60;0.88;;;;;;;;;;4961342;28;20045;-89
2021/10/06 13:55:29;;;;;;;1.77;0.90;;;;;;;;;;4961593;28;20050;-90
2021/10/06 13:57:56;;;;;;;1.30;0.80;;;;;;;;;;4962410;28;20069;-90
2021/10/06 14:00:23;;;;;;;0.82;0.77;;;;;;;;;;4961737;28;20508;-91
2021/10/06 14:02:49;;;;;;;1.17;0.80;;;;;;;;;;4961803;28;20096;-91
2021/10/06 14:05:15;;;;;;;2.00;1.00;;;;;;;;;;4962000;28;20058;-92
2021/10/06 14:07:42;;;;;;;2.20;1.10;;;;;;;;;;4977835;28;20137;-90
2021/10/06 14:10:33;;;;;;;2.13;1.48;;;;;;;;;;4978653;28;20134;-90
2021/10/06 14:12:59;;;;;;;2.63;1.35;;;;;;;;;;4961804;28;20097;-90
2021/10/06 14:15:25;;;;;;;2.63;1.55;;;;;;;;;;4962320;28;20329;-91
2021/10/06 14:17:56;;;;;;;2.95;1.50;;;;;;;;;;4962217;28;20061;-91
2021/10/06 14:20:22;;;;;;;2.47;1.50;;;;;;;;;;4961630;28;20487;-91
2021/10/06 14:22:50;;;;;;;1.55;1.45;;;;;;;;;;4976564;28;20042;-90
2021/10/06 14:25:17;;;;;;;1.83;1.20;;;;;;;;;;4975546;28;20100;-90
2021/10/06 14:27:44;;;;;;;1.45;1.00;;;;;;;;;;4961757;28;20050;-90
2021/10/06 14:30:11;;;;;;;3.08;1.27;;;;;;;;;;4995595;28;20054;-89
2021/10/06 14:32:38;;;;;;;2.70;1.40;;;;;;;;;;4968946;28;20101;-89
2021/10/06 14:35:05;;;;;;;1.80;1.40;;;;;;;;;;4965885;28;20139;-89
2021/10/06 14:37:31;;;;;;;1.33;1.00;;;;;;;;;;4974687;28;20084;-89
2021/10/06 14:39:57;;;;;;;1.95;1.00;;;;;;;;;;4958383;28;20047;-89
2021/10/06 14:42:24;;;;;;;1.90;0.90;;;;;;;;;;4974868;28;20042;-91
2021/10/06 14:44:50;;;;;;;1.10;0.98;;;;;;;;;;4959474;28;20057;-91